Time;durP1;ratioP1;P1;durP2;ratioP2;P2;SDS_P1;SDS_P2;PMS_P1;PMS_P2;Temp;Humidity;BMP_temperature;BMP_pressure;BME280_temperature;BME280_humidity;BME280_pressure;Samples;Min_cycle;Max_cycle;Signal;HPM_P1;HPM_P2
2023/08/16 00:00:20;;;;;;;29.40;20.40;;;19.80;99.90;;;;;;5011690;28;20018;-45
2023/08/16 00:02:45;;;;;;;27.33;19.50;;;19.80;99.90;;;;;;5011596;28;20022;-46
2023/08/16 00:05:11;;;;;;;22.23;17.58;;;19.80;99.90;;;;;;4993657;28;20030;-48
2023/08/16 00:07:37;;;;;;;22.58;17.35;;;19.80;99.90;;;;;;5011644;28;20029;-46
2023/08/16 00:10:03;;;;;;;22.33;14.65;;;19.80;99.90;;;;;;5011641;28;20025;-45
2023/08/16 00:12:28;;;;;;;20.17;15.10;;;19.70;99.90;;;;;;5011417;28;20049;-46
2023/08/16 00:14:54;;;;;;;18.92;15.30;;;19.70;99.90;;;;;;5011195;28;20057;-45
2023/08/16 00:17:19;;;;;;;20.17;15.43;;;19.70;99.90;;;;;;5011959;28;20029;-45
2023/08/16 00:19:45;;;;;;;19.02;14.55;;;19.70;99.90;;;;;;5011916;28;20096;-45
2023/08/16 00:22:10;;;;;;;28.08;18.38;;;19.60;99.90;;;;;;5011420;28;20469;-44
2023/08/16 00:24:36;;;;;;;30.23;20.00;;;19.50;99.90;;;;;;4993248;28;20469;-44
2023/08/16 00:27:03;;;;;;;25.98;18.77;;;19.50;99.90;;;;;;5011325;28;20029;-45
2023/08/16 00:29:28;;;;;;;25.67;18.92;;;19.50;99.90;;;;;;5011217;28;20053;-44
2023/08/16 00:31:54;;;;;;;20.80;16.73;;;19.50;99.90;;;;;;5011192;28;20129;-45
2023/08/16 00:34:19;;;;;;;23.90;17.88;;;19.50;99.90;;;;;;5011024;28;20394;-46
2023/08/16 00:36:45;;;;;;;27.33;19.67;;;19.50;99.90;;;;;;5010851;28;20030;-45
2023/08/16 00:39:10;;;;;;;26.33;16.52;;;19.40;99.90;;;;;;5011156;28;20021;-45
2023/08/16 00:41:36;;;;;;;18.30;15.30;;;19.40;99.90;;;;;;4993399;28;20105;-45
2023/08/16 00:44:01;;;;;;;20.83;14.48;;;19.50;99.90;;;;;;5010963;28;20030;-46
2023/08/16 00:46:30;;;;;;;22.63;15.77;;;19.50;99.90;;;;;;5010978;28;20064;-46
2023/08/16 00:48:55;;;;;;;17.02;13.65;;;19.50;99.90;;;;;;5011293;28;20031;-45
2023/08/16 00:51:21;;;;;;;17.50;12.70;;;19.50;99.90;;;;;;5010963;28;20026;-47
2023/08/16 00:53:47;;;;;;;17.75;14.52;;;19.50;99.90;;;;;;5010450;28;20033;-49
2023/08/16 00:56:14;;;;;;;17.30;13.50;;;19.50;99.90;;;;;;5010602;28;20424;-49
2023/08/16 00:58:40;;;;;;;16.40;13.55;;;19.50;99.90;;;;;;4993024;28;20492;-47
2023/08/16 01:01:07;;;;;;;19.58;14.20;;;19.50;99.90;;;;;;4993343;28;20026;-48
2023/08/16 01:03:32;;;;;;;18.20;13.05;;;19.40;99.90;;;;;;5010441;28;20567;-47
2023/08/16 01:05:58;;;;;;;19.98;14.68;;;19.40;99.90;;;;;;5010589;28;20109;-47
2023/08/16 01:08:23;;;;;;;21.27;16.67;;;19.30;99.90;;;;;;5010954;28;20461;-45
2023/08/16 01:11:01;;;;;;;17.40;13.70;;;19.30;99.90;;;;;;5010514;28;20512;-46
2023/08/16 01:13:41;;;;;;;20.30;14.45;;;19.20;99.90;;;;;;5010529;28;20092;-46
2023/08/16 01:16:08;;;;;;;23.40;16.02;;;19.20;99.90;;;;;;5010033;28;20200;-46
2023/08/16 01:18:36;;;;;;;18.02;14.57;;;19.20;99.90;;;;;;5010447;28;20049;-47
2023/08/16 01:21:02;;;;;;;19.00;14.68;;;19.20;99.90;;;;;;5010497;28;20014;-46
2023/08/16 01:23:54;;;;;;;31.60;17.88;;;19.10;99.90;;;;;;4992410;28;20022;-46
2023/08/16 01:26:36;;;;;;;18.67;14.23;;;19.10;99.90;;;;;;5010202;28;20034;-49
2023/08/16 01:29:04;;;;;;;19.27;14.95;;;19.00;99.90;;;;;;5010592;28;20053;-48
2023/08/16 01:31:31;;;;;;;17.80;13.20;;;19.00;99.90;;;;;;5010374;28;20615;-46
2023/08/16 01:33:59;;;;;;;18.70;14.88;;;19.00;99.90;;;;;;5009968;28;20029;-47
2023/08/16 01:36:24;;;;;;;16.90;14.02;;;18.90;99.90;;;;;;5010149;28;20026;-46
2023/08/16 01:38:50;;;;;;;18.80;14.85;;;18.90;99.90;;;;;;5010281;28;20029;-46
2023/08/16 01:41:30;;;;;;;18.45;14.73;;;18.90;99.90;;;;;;5010489;28;20089;-45
2023/08/16 01:43:56;;;;;;;19.83;14.82;;;18.80;99.90;;;;;;5010232;28;20250;-45
2023/08/16 01:46:23;;;;;;;19.83;16.45;;;18.80;99.90;;;;;;5010160;28;20033;-46
2023/08/16 01:48:50;;;;;;;20.08;15.10;;;18.80;99.90;;;;;;5010384;28;20022;-47
2023/08/16 01:51:16;;;;;;;16.77;13.80;;;18.80;99.90;;;;;;4992816;28;20400;-48
2023/08/16 01:53:42;;;;;;;17.98;14.00;;;18.80;99.90;;;;;;5009803;28;20397;-46
2023/08/16 01:56:08;;;;;;;16.17;13.57;;;18.70;99.90;;;;;;5009974;28;20029;-46
2023/08/16 01:58:33;;;;;;;16.30;13.80;;;18.70;99.90;;;;;;5010167;28;20022;-49
2023/08/16 02:00:59;;;;;;;16.90;12.75;;;18.70;99.90;;;;;;5010150;28;20057;-46
2023/08/16 02:03:24;;;;;;;20.92;13.65;;;18.60;99.90;;;;;;5010081;28;20088;-47
2023/08/16 02:05:50;;;;;;;14.63;12.88;;;18.70;99.90;;;;;;4992099;28;20026;-48
2023/08/16 02:08:15;;;;;;;12.48;10.98;;;18.60;99.90;;;;;;5010164;28;20022;-46
2023/08/16 02:10:41;;;;;;;15.32;11.10;;;18.60;99.90;;;;;;5010214;28;20108;-50
2023/08/16 02:13:06;;;;;;;14.55;12.13;;;18.60;99.90;;;;;;5010178;28;20026;-49
2023/08/16 02:15:32;;;;;;;15.48;12.68;;;18.50;99.90;;;;;;5009926;28;20068;-46
2023/08/16 02:17:57;;;;;;;11.75;10.27;;;18.60;99.90;;;;;;5009988;28;20026;-47
2023/08/16 02:20:23;;;;;;;15.57;12.20;;;18.50;99.90;;;;;;5010150;28;20377;-46
2023/08/16 02:22:48;;;;;;;15.10;13.07;;;18.50;99.90;;;;;;5009948;28;20049;-46
2023/08/16 02:25:14;;;;;;;14.32;12.32;;;18.40;99.90;;;;;;5009446;28;20413;-47
2023/08/16 02:27:40;;;;;;;15.13;11.00;;;18.40;99.90;;;;;;5009815;28;20041;-47
2023/08/16 02:30:06;;;;;;;14.10;10.80;;;18.40;99.90;;;;;;5009860;28;20026;-46
2023/08/16 02:32:33;;;;;;;16.77;13.68;;;18.30;99.90;;;;;;5009689;28;20537;-46
2023/08/16 02:34:59;;;;;;;16.58;12.07;;;18.30;99.90;;;;;;5009727;28;20022;-50
2023/08/16 02:37:25;;;;;;;19.02;13.00;;;18.30;99.90;;;;;;5013593;28;20519;-46
2023/08/16 02:39:51;;;;;;;13.80;11.25;;;18.30;99.90;;;;;;4995703;28;20492;-47
2023/08/16 02:42:17;;;;;;;15.20;12.40;;;18.30;99.90;;;;;;5013238;28;20389;-47
2023/08/16 02:44:42;;;;;;;12.98;11.38;;;18.30;99.90;;;;;;5012653;28;20030;-46
2023/08/16 02:47:08;;;;;;;14.52;11.57;;;18.20;99.90;;;;;;5013655;28;20125;-46
2023/08/16 02:49:33;;;;;;;11.25;10.13;;;18.20;99.90;;;;;;5013139;28;20150;-48
2023/08/16 02:51:59;;;;;;;15.48;11.40;;;18.20;99.90;;;;;;5013239;28;20053;-47
2023/08/16 02:54:24;;;;;;;14.60;10.18;;;18.20;99.90;;;;;;5012763;28;20060;-47
2023/08/16 02:56:50;;;;;;;14.88;10.82;;;18.20;99.90;;;;;;5012767;28;20093;-47
2023/08/16 02:59:15;;;;;;;13.18;9.60;;;18.10;99.90;;;;;;5013197;28;20112;-46
2023/08/16 03:01:41;;;;;;;10.63;9.50;;;18.10;99.90;;;;;;5012814;28;20480;-48
2023/08/16 03:04:07;;;;;;;14.07;10.38;;;18.10;99.90;;;;;;5012998;28;20018;-45
2023/08/16 03:06:33;;;;;;;10.98;8.75;;;18.00;99.90;;;;;;5012499;28;20029;-44
2023/08/16 03:08:59;;;;;;;12.50;10.30;;;18.00;99.90;;;;;;5012790;28;20047;-43
2023/08/16 03:11:25;;;;;;;14.52;9.68;;;18.00;99.90;;;;;;5012702;28;20041;-47
2023/08/16 03:13:50;;;;;;;12.93;8.55;;;17.90;99.90;;;;;;5012307;28;20026;-44
2023/08/16 03:16:16;;;;;;;15.05;10.10;;;17.90;99.90;;;;;;5012443;28;20034;-44
2023/08/16 03:18:41;;;;;;;11.85;9.30;;;17.80;99.90;;;;;;5012690;28;20049;-44
2023/08/16 03:21:07;;;;;;;15.82;10.05;;;17.80;99.90;;;;;;5012597;28;20103;-46
2023/08/16 03:23:32;;;;;;;11.30;8.98;;;17.80;99.90;;;;;;5012233;28;20026;-44
2023/08/16 03:25:58;;;;;;;10.60;8.73;;;17.70;99.90;;;;;;5012163;28;20484;-48
2023/08/16 03:28:23;;;;;;;9.65;8.35;;;17.70;99.90;;;;;;5012405;28;20220;-44
2023/08/16 03:30:49;;;;;;;12.43;9.07;;;17.60;99.90;;;;;;5012152;28;20030;-44
2023/08/16 03:33:14;;;;;;;8.98;7.63;;;17.60;99.90;;;;;;4994698;28;20437;-46
2023/08/16 03:35:40;;;;;;;10.70;7.85;;;17.60;99.90;;;;;;4994412;28;20160;-45
2023/08/16 03:38:05;;;;;;;13.05;9.25;;;17.60;99.90;;;;;;4994810;28;20021;-44
2023/08/16 03:40:31;;;;;;;12.15;8.52;;;17.60;99.90;;;;;;5012229;28;20030;-48
2023/08/16 03:42:56;;;;;;;11.60;8.68;;;17.50;99.90;;;;;;5012003;28;20097;-43
2023/08/16 03:45:24;;;;;;;10.35;9.05;;;17.50;99.90;;;;;;5011607;28;20026;-46
2023/08/16 03:47:51;;;;;;;10.00;8.18;;;17.50;99.90;;;;;;5011604;28;20033;-46
2023/08/16 03:50:17;;;;;;;10.50;8.55;;;17.50;99.90;;;;;;5012034;28;20033;-45
2023/08/16 03:52:42;;;;;;;9.65;7.97;;;17.50;99.90;;;;;;5011854;28;20025;-45
2023/08/16 03:55:08;;;;;;;13.50;9.00;;;17.50;99.90;;;;;;4993900;28;20430;-46
2023/08/16 03:57:33;;;;;;;9.48;7.68;;;17.60;99.90;;;;;;5012347;28;20097;-46
2023/08/16 03:59:59;;;;;;;9.20;7.53;;;17.60;99.90;;;;;;5011725;28;20029;-45
2023/08/16 04:02:25;;;;;;;9.02;6.55;;;17.60;99.90;;;;;;5011884;28;20102;-46
2023/08/16 04:04:53;;;;;;;10.23;7.18;;;17.60;99.90;;;;;;5011242;28;20030;-45
2023/08/16 04:07:18;;;;;;;7.90;5.65;;;17.60;99.90;;;;;;5011637;28;20072;-47
2023/08/16 04:09:44;;;;;;;9.43;5.82;;;17.60;99.90;;;;;;5011607;28;20464;-46
2023/08/16 04:12:09;;;;;;;9.55;5.65;;;17.60;99.90;;;;;;5011641;28;20030;-46
2023/08/16 04:14:35;;;;;;;7.28;5.90;;;17.60;99.90;;;;;;5011118;28;20077;-46
2023/08/16 04:17:00;;;;;;;9.30;5.28;;;17.60;99.90;;;;;;5011798;28;20059;-46
2023/08/16 04:19:26;;;;;;;8.57;5.15;;;17.60;99.90;;;;;;5011834;28;20037;-48
2023/08/16 04:21:51;;;;;;;9.52;5.68;;;17.60;99.90;;;;;;5011782;28;20030;-47
2023/08/16 04:24:17;;;;;;;10.10;5.47;;;17.60;99.90;;;;;;5011362;28;20026;-45
2023/08/16 04:26:43;;;;;;;5.63;4.70;;;17.60;99.90;;;;;;4993720;28;20030;-45
2023/08/16 04:29:09;;;;;;;5.18;4.53;;;17.50;99.90;;;;;;5011383;28;20443;-46
2023/08/16 04:31:34;;;;;;;7.07;4.50;;;17.50;99.90;;;;;;5011347;28;20034;-48
2023/08/16 04:34:00;;;;;;;5.30;4.45;;;17.50;99.90;;;;;;5011084;28;20080;-46
2023/08/16 04:36:25;;;;;;;7.53;4.68;;;17.50;99.90;;;;;;5011019;28;20025;-45
2023/08/16 04:38:51;;;;;;;4.82;4.35;;;17.40;99.90;;;;;;4993474;28;20018;-47
2023/08/16 04:41:16;;;;;;;5.85;4.65;;;17.40;99.90;;;;;;5011186;28;20397;-45
2023/08/16 04:43:42;;;;;;;6.15;4.95;;;17.40;99.90;;;;;;5010668;28;20037;-48
2023/08/16 04:46:08;;;;;;;7.20;5.35;;;17.40;99.90;;;;;;5010846;28;20021;-47
2023/08/16 04:48:33;;;;;;;8.05;5.47;;;17.40;99.90;;;;;;5011026;28;20034;-47
2023/08/16 04:50:58;;;;;;;6.70;5.45;;;17.40;99.90;;;;;;4993310;28;20037;-48
2023/08/16 04:53:24;;;;;;;6.75;5.95;;;17.40;99.90;;;;;;4993574;28;20469;-45
2023/08/16 04:55:49;;;;;;;12.43;5.38;;;17.40;99.90;;;;;;5010412;28;20069;-46
2023/08/16 04:58:15;;;;;;;5.90;5.30;;;17.40;99.90;;;;;;5010114;28;20101;-45
2023/08/16 05:00:41;;;;;;;7.18;5.25;;;17.40;99.90;;;;;;4993166;28;20443;-46
2023/08/16 05:03:06;;;;;;;8.55;5.90;;;17.50;99.90;;;;;;5010726;28;20018;-47
2023/08/16 05:05:32;;;;;;;7.72;4.90;;;17.50;99.90;;;;;;5010288;28;20487;-46
2023/08/16 05:07:57;;;;;;;8.07;4.97;;;17.60;99.90;;;;;;5010629;28;20065;-49
2023/08/16 05:10:23;;;;;;;6.78;4.63;;;17.70;99.90;;;;;;5010778;28;20025;-47
2023/08/16 05:12:48;;;;;;;6.22;5.13;;;17.80;99.90;;;;;;5010501;28;20049;-46
2023/08/16 05:15:14;;;;;;;6.25;4.50;;;17.90;99.90;;;;;;5010186;28;20030;-46
2023/08/16 05:17:40;;;;;;;9.48;4.75;;;17.90;99.90;;;;;;5010801;28;20034;-45
2023/08/16 05:20:06;;;;;;;6.72;4.53;;;18.00;99.90;;;;;;5010999;28;20052;-46
2023/08/16 05:22:32;;;;;;;6.15;3.97;;;18.10;99.90;;;;;;5010849;28;20389;-46
2023/08/16 05:24:57;;;;;;;7.57;3.75;;;18.20;99.90;;;;;;5010255;28;20113;-45
2023/08/16 05:27:23;;;;;;;5.25;4.00;;;18.30;99.90;;;;;;5010787;28;20401;-45
2023/08/16 05:29:48;;;;;;;8.07;4.28;;;18.30;99.90;;;;;;5010524;28;20454;-45
2023/08/16 05:32:14;;;;;;;8.23;4.38;;;18.40;99.90;;;;;;5010357;28;20393;-48
2023/08/16 05:34:41;;;;;;;9.93;4.72;;;18.40;99.90;;;;;;4992354;28;20038;-45
2023/08/16 05:37:06;;;;;;;6.70;4.57;;;18.50;99.90;;;;;;5010556;28;20017;-47
2023/08/16 05:39:32;;;;;;;6.82;4.50;;;18.50;99.90;;;;;;5010814;28;20101;-45
2023/08/16 05:41:58;;;;;;;7.03;4.28;;;18.50;99.90;;;;;;5010151;28;20057;-47
2023/08/16 05:44:23;;;;;;;8.63;4.40;;;18.60;99.90;;;;;;5010072;28;20033;-46
2023/08/16 05:46:49;;;;;;;9.40;4.95;;;18.60;99.90;;;;;;5010132;28;20026;-46
2023/08/16 05:49:14;;;;;;;9.68;4.70;;;18.70;99.90;;;;;;5010504;28;20018;-46
2023/08/16 05:51:40;;;;;;;10.30;4.88;;;18.70;99.90;;;;;;5010480;28;20061;-44
2023/08/16 05:54:06;;;;;;;6.90;4.78;;;18.80;99.90;;;;;;5001930;28;20136;-47
2023/08/16 05:56:31;;;;;;;6.45;4.05;;;18.80;99.90;;;;;;5009895;28;20014;-46
2023/08/16 05:58:57;;;;;;;7.40;4.07;;;18.90;99.90;;;;;;5010141;28;20080;-45
2023/08/16 06:01:22;;;;;;;6.63;3.88;;;18.90;99.90;;;;;;5010206;28;20028;-48
2023/08/16 06:03:48;;;;;;;10.50;4.22;;;18.90;99.90;;;;;;4992108;28;20018;-46
2023/08/16 06:06:14;;;;;;;6.60;4.60;;;19.00;99.90;;;;;;4992272;28;20018;-46
2023/08/16 06:08:40;;;;;;;7.93;3.70;;;19.10;99.90;;;;;;5010146;28;20026;-48
2023/08/16 06:11:06;;;;;;;7.82;3.70;;;19.10;99.90;;;;;;4996109;28;20014;-47
2023/08/16 06:13:31;;;;;;;4.13;3.40;;;19.20;99.90;;;;;;4996548;28;20030;-48
2023/08/16 06:15:57;;;;;;;6.35;4.00;;;19.20;99.90;;;;;;5013041;28;20485;-46
2023/08/16 06:18:23;;;;;;;5.65;3.70;;;19.30;99.90;;;;;;5013800;28;20026;-46
2023/08/16 06:20:48;;;;;;;4.50;3.55;;;19.30;99.90;;;;;;4996081;28;20026;-48
2023/08/16 06:23:14;;;;;;;9.02;4.25;;;19.40;99.90;;;;;;5013560;28;20433;-46
2023/08/16 06:25:40;;;;;;;6.95;3.53;;;19.40;99.90;;;;;;5013205;28;20026;-45
2023/08/16 06:28:06;;;;;;;8.98;3.95;;;19.50;99.90;;;;;;5013527;28;20465;-45
2023/08/16 06:30:31;;;;;;;9.10;4.00;;;19.50;99.90;;;;;;5013579;28;20416;-48
2023/08/16 06:32:56;;;;;;;5.93;3.90;;;19.60;99.90;;;;;;4995734;28;20820;-49
2023/08/16 06:35:22;;;;;;;6.55;3.85;;;19.70;99.90;;;;;;5012992;28;20084;-47
2023/08/16 06:37:49;;;;;;;5.03;3.00;;;19.70;99.90;;;;;;5013361;28;20056;-45
2023/08/16 06:40:14;;;;;;;5.15;3.10;;;19.70;99.90;;;;;;5013394;28;20018;-49
2023/08/16 06:42:40;;;;;;;3.88;3.08;;;19.80;99.90;;;;;;5013275;28;20033;-46
2023/08/16 06:45:07;;;;;;;4.95;3.00;;;19.90;99.90;;;;;;5012794;28;20044;-47
2023/08/16 06:47:32;;;;;;;5.00;3.05;;;20.00;99.90;;;;;;5013219;28;20037;-47
2023/08/16 06:49:58;;;;;;;7.47;3.08;;;20.10;99.90;;;;;;5013150;28;20400;-46
2023/08/16 06:52:23;;;;;;;5.47;3.40;;;20.20;99.90;;;;;;5013236;28;20127;-47
2023/08/16 06:54:49;;;;;;;6.20;3.28;;;20.40;99.90;;;;;;5012472;28;20034;-45
2023/08/16 06:57:15;;;;;;;8.93;2.97;;;20.60;99.90;;;;;;5013183;28;20393;-46
2023/08/16 06:59:41;;;;;;;5.63;2.80;;;20.70;99.90;;;;;;5013287;28;20053;-46
2023/08/16 07:02:11;;;;;;;6.60;3.40;;;20.90;99.90;;;;;;5012776;28;20049;-47
2023/08/16 07:04:38;;;;;;;5.07;3.42;;;21.00;99.90;;;;;;5012528;28;20022;-47
2023/08/16 07:07:05;;;;;;;7.88;3.65;;;21.10;99.90;;;;;;5012884;28;20151;-46
2023/08/16 07:09:30;;;;;;;4.13;2.83;;;21.30;99.90;;;;;;5012650;28;20030;-46
2023/08/16 07:11:56;;;;;;;7.40;3.40;;;21.50;99.90;;;;;;5012582;28;20030;-48
2023/08/16 07:14:21;;;;;;;5.20;3.47;;;21.70;99.90;;;;;;5012263;28;20029;-47
2023/08/16 07:16:47;;;;;;;5.15;3.70;;;21.80;99.90;;;;;;5012400;28;20104;-48
2023/08/16 07:19:12;;;;;;;12.80;4.45;;;21.80;99.90;;;;;;5012676;28;20022;-47
2023/08/16 07:21:39;;;;;;;5.90;3.63;;;22.00;99.90;;;;;;5012035;28;20076;-46
2023/08/16 07:24:04;;;;;;;5.53;3.25;;;22.00;99.90;;;;;;4994499;28;20057;-46
2023/08/16 07:26:30;;;;;;;6.80;4.30;;;22.20;99.90;;;;;;5012068;28;20103;-46
2023/08/16 07:28:55;;;;;;;7.13;4.18;;;22.30;99.90;;;;;;5012227;28;20382;-48
2023/08/16 07:31:21;;;;;;;6.28;3.70;;;22.50;99.90;;;;;;5012119;28;20064;-47
2023/08/16 07:33:47;;;;;;;6.35;4.65;;;22.80;99.90;;;;;;5011744;28;20034;-46
2023/08/16 07:36:12;;;;;;;7.65;4.32;;;22.80;99.90;;;;;;5012101;28;20057;-49
2023/08/16 07:38:38;;;;;;;10.75;5.43;;;22.90;99.90;;;;;;5012245;28;20030;-48
2023/08/16 07:41:03;;;;;;;12.10;6.18;;;23.00;99.90;;;;;;5011961;28;20026;-46
2023/08/16 07:43:29;;;;;;;7.63;5.63;;;23.00;99.90;;;;;;4994256;28;20026;-46
2023/08/16 07:45:55;;;;;;;8.80;5.25;;;23.00;99.90;;;;;;5011484;28;20055;-47
2023/08/16 07:48:20;;;;;;;7.57;5.00;;;22.90;99.90;;;;;;5011755;28;20034;-49
2023/08/16 07:50:46;;;;;;;13.90;5.43;;;23.00;99.90;;;;;;5011900;28;20036;-47
2023/08/16 07:53:13;;;;;;;7.90;4.53;;;22.80;99.90;;;;;;4977936;28;20030;-47
2023/08/16 07:55:38;;;;;;;7.72;4.63;;;22.80;99.90;;;;;;5011611;28;20029;-47
2023/08/16 07:58:03;;;;;;;8.85;4.70;;;22.90;99.90;;;;;;5011839;28;20076;-46
2023/08/16 08:00:29;;;;;;;9.30;4.80;;;22.80;99.90;;;;;;5012081;28;20075;-46
2023/08/16 08:02:55;;;;;;;8.02;4.97;;;22.90;99.90;;;;;;5011588;28;20409;-50
2023/08/16 08:05:21;;;;;;;6.15;3.88;;;23.00;99.90;;;;;;5011158;28;20029;-48
2023/08/16 08:07:48;;;;;;;8.15;4.75;;;23.20;99.90;;;;;;5011548;28;20080;-47
2023/08/16 08:10:14;;;;;;;9.50;5.22;;;23.20;99.90;;;;;;5011741;28;20020;-46
2023/08/16 08:12:43;;;;;;;9.05;5.07;;;23.20;99.90;;;;;;5011642;28;20060;-48
2023/08/16 08:15:09;;;;;;;7.05;5.13;;;23.20;99.90;;;;;;5010972;28;20034;-47
2023/08/16 08:17:34;;;;;;;6.47;5.18;;;23.50;99.90;;;;;;5011619;28;20014;-47
2023/08/16 08:20:00;;;;;;;11.32;5.47;;;23.50;99.90;;;;;;5011483;28;20056;-47
2023/08/16 08:22:25;;;;;;;7.63;5.00;;;23.50;99.90;;;;;;5011491;28;20397;-46
2023/08/16 08:24:51;;;;;;;9.45;6.47;;;23.30;99.90;;;;;;5011068;28;20303;-47
2023/08/16 08:27:16;;;;;;;9.75;6.72;;;23.10;99.90;;;;;;5011420;28;20501;-47
2023/08/16 08:29:42;;;;;;;11.90;6.78;;;22.90;99.90;;;;;;5011352;28;20037;-46
2023/08/16 08:32:08;;;;;;;7.80;6.30;;;22.60;99.90;;;;;;5010919;28;20200;-47
2023/08/16 08:34:34;;;;;;;8.27;5.85;;;22.90;99.90;;;;;;5010421;28;20436;-47
2023/08/16 08:37:00;;;;;;;14.38;7.15;;;23.10;99.90;;;;;;5011146;28;20026;-46
2023/08/16 08:39:28;;;;;;;13.98;6.45;;;23.10;99.90;;;;;;5011325;28;20014;-46
2023/08/16 08:41:55;;;;;;;12.00;7.25;;;23.40;99.90;;;;;;5011069;28;20456;-47
2023/08/16 08:44:22;;;;;;;10.98;6.53;;;23.60;99.90;;;;;;5011151;28;20096;-48
2023/08/16 08:46:48;;;;;;;10.98;7.00;;;23.90;99.90;;;;;;5010835;28;20125;-47
2023/08/16 08:49:15;;;;;;;7.22;5.63;;;24.60;99.90;;;;;;5010936;28;20506;-46
2023/08/16 08:51:41;;;;;;;10.35;6.28;;;25.60;99.90;;;;;;5010712;28;20072;-45
2023/08/16 08:54:07;;;;;;;9.00;6.30;;;26.10;99.90;;;;;;5010444;28;20033;-46
2023/08/16 08:56:33;;;;;;;6.00;5.45;;;26.10;99.90;;;;;;5010474;28;20037;-48
2023/08/16 08:59:04;;;;;;;10.15;7.30;;;25.90;99.90;;;;;;5010719;28;20025;-48
2023/08/16 09:01:31;;;;;;;8.40;6.32;;;25.80;99.90;;;;;;5010746;28;20033;-45
2023/08/16 09:04:00;;;;;;;7.80;5.55;;;25.60;99.90;;;;;;5010400;28;20369;-47
2023/08/16 09:06:26;;;;;;;6.40;5.28;;;25.50;99.90;;;;;;5010986;28;20022;-45
2023/08/16 09:08:52;;;;;;;10.20;6.07;;;25.30;99.90;;;;;;5010726;28;20076;-46
2023/08/16 09:11:19;;;;;;;7.53;5.88;;;25.30;99.90;;;;;;5010862;28;20024;-46
2023/08/16 09:13:47;;;;;;;9.00;6.03;;;25.30;99.90;;;;;;5010232;28;20026;-48
2023/08/16 09:16:12;;;;;;;7.93;5.90;;;25.50;99.90;;;;;;5010208;28;20022;-45
2023/08/16 09:18:48;;;;;;;7.47;5.50;;;26.10;99.90;;;;;;5010470;28;20322;-46
2023/08/16 09:21:18;;;;;;;10.27;6.47;;;26.30;99.90;;;;;;5010437;28;20091;-46
2023/08/16 09:23:44;;;;;;;;;;;26.10;99.90;;;;;;4993042;28;20693;-46
2023/08/16 09:26:14;;;;;;;8.13;6.05;;;26.10;99.90;;;;;;5010493;28;20008;-47
2023/08/16 09:28:39;;;;;;;9.77;6.82;;;25.90;99.90;;;;;;4992782;28;20032;-45
2023/08/16 09:31:06;;;;;;;11.00;6.82;;;25.70;99.90;;;;;;5010697;28;20128;-48
2023/08/16 09:33:34;;;;;;;9.88;7.28;;;25.60;99.90;;;;;;5010556;28;20049;-46
2023/08/16 09:36:01;;;;;;;8.43;6.80;;;25.50;99.90;;;;;;5009956;28;20026;-47
2023/08/16 09:38:26;;;;;;;9.02;6.53;;;25.40;99.90;;;;;;4992608;28;20025;-48
2023/08/16 09:40:52;;;;;;;9.68;7.25;;;25.20;99.90;;;;;;5008004;28;20022;-48
2023/08/16 09:43:18;;;;;;;11.38;6.45;;;25.00;99.90;;;;;;5010203;28;20097;-45
2023/08/16 09:45:48;;;;;;;10.93;7.22;;;24.90;99.90;;;;;;5012892;28;20029;-47
2023/08/16 09:48:14;;;;;;;9.60;6.97;;;25.60;99.90;;;;;;5014229;28;20018;-48
2023/08/16 09:50:39;;;;;;;8.75;6.60;;;26.90;99.90;;;;;;5014280;28;20413;-47
2023/08/16 09:53:05;;;;;;;8.70;5.65;;;28.60;99.90;;;;;;5015864;28;20452;-48
2023/08/16 09:55:33;;;;;;;9.38;6.75;;;30.10;99.90;;;;;;5002445;28;20030;-47
2023/08/16 09:58:00;;;;;;;7.65;6.40;;;31.10;98.80;;;;;;4996348;28;20026;-46
2023/08/16 10:00:30;;;;;;;7.55;5.60;;;30.70;96.30;;;;;;5014154;28;20408;-50
2023/08/16 10:02:57;;;;;;;6.70;5.80;;;30.40;96.60;;;;;;5014053;28;20033;-48
2023/08/16 10:05:24;;;;;;;7.15;5.22;;;30.90;96.60;;;;;;5013594;28;20057;-50
2023/08/16 10:07:50;;;;;;;6.90;5.43;;;31.70;96.20;;;;;;5014342;28;20401;-49
2023/08/16 10:10:16;;;;;;;7.00;5.30;;;32.60;94.40;;;;;;5013790;28;20018;-51
2023/08/16 10:12:43;;;;;;;6.40;5.60;;;33.50;93.20;;;;;;5013785;28;20037;-48
2023/08/16 10:15:10;;;;;;;8.50;6.22;;;34.00;91.20;;;;;;4995635;28;20026;-47
2023/08/16 10:17:38;;;;;;;7.40;6.13;;;34.40;89.10;;;;;;5013995;28;20105;-49
2023/08/16 10:20:05;;;;;;;5.70;4.87;;;34.50;88.30;;;;;;5013725;28;20532;-47
2023/08/16 10:22:42;;;;;;;7.15;5.88;;;34.00;88.00;;;;;;5013570;28;20477;-46
2023/08/16 10:25:12;;;;;;;8.15;6.07;;;34.10;86.50;;;;;;4995522;28;20511;-49
2023/08/16 10:27:41;;;;;;;7.57;6.25;;;34.10;88.00;;;;;;4996657;28;20052;-47
2023/08/16 10:30:10;;;;;;;9.33;6.50;;;34.50;86.30;;;;;;5013423;28;20484;-46
2023/08/16 10:32:40;;;;;;;;;;;34.30;87.10;;;;;;5013855;28;20045;-47
2023/08/16 10:35:07;;;;;;;9.00;7.20;;;34.30;86.40;;;;;;5013048;28;19917;-50
2023/08/16 10:37:33;;;;;;;8.10;5.75;;;34.30;84.10;;;;;;5013505;28;20543;-47
2023/08/16 10:39:59;;;;;;;8.13;5.80;;;34.50;85.90;;;;;;4995727;28;20034;-47
2023/08/16 10:42:26;;;;;;;8.30;5.45;;;35.10;84.40;;;;;;5013215;28;20030;-46
2023/08/16 10:44:51;;;;;;;8.05;5.50;;;35.40;82.80;;;;;;5013163;28;20088;-47
2023/08/16 10:47:28;;;;;;;5.50;4.93;;;35.80;80.90;;;;;;5013278;28;20034;-50
2023/08/16 10:49:54;;;;;;;7.13;6.18;;;36.00;82.50;;;;;;4995596;28;20033;-46
2023/08/16 10:52:32;;;;;;;7.95;6.00;;;36.50;79.50;;;;;;5013016;28;20718;-49
2023/08/16 10:54:59;;;;;;;6.25;5.22;;;36.80;77.70;;;;;;5013099;28;20018;-47
2023/08/16 10:57:25;;;;;;;5.35;4.82;;;36.40;78.80;;;;;;5012341;28;20030;-49
2023/08/16 11:00:05;;;;;;;7.78;6.15;;;36.10;78.00;;;;;;5013102;28;20030;-46
2023/08/16 11:02:32;;;;;;;8.00;6.10;;;36.70;79.00;;;;;;5012906;28;20057;-49
2023/08/16 11:05:00;;;;;;;5.72;5.15;;;35.80;78.20;;;;;;5012331;28;20509;-47
2023/08/16 11:07:27;;;;;;;7.35;5.25;;;36.00;77.50;;;;;;5012836;28;20489;-46
2023/08/16 11:09:52;;;;;;;6.78;4.93;;;36.70;79.20;;;;;;5012681;28;20029;-48
2023/08/16 11:12:18;;;;;;;7.47;6.00;;;36.80;76.10;;;;;;5012708;28;20028;-50
2023/08/16 11:14:46;;;;;;;7.93;5.72;;;37.20;76.30;;;;;;5011820;28;20025;-47
2023/08/16 11:17:15;;;;;;;7.82;6.00;;;37.30;73.50;;;;;;5012660;28;20113;-47
2023/08/16 11:19:41;;;;;;;6.07;5.25;;;36.90;75.10;;;;;;5012824;28;20036;-48
2023/08/16 11:22:08;;;;;;;5.35;4.85;;;37.10;76.10;;;;;;4994890;28;20022;-49
2023/08/16 11:24:34;;;;;;;8.70;5.53;;;37.60;74.80;;;;;;5012181;28;20053;-46
2023/08/16 11:27:03;;;;;;;6.47;5.82;;;37.60;73.00;;;;;;5012227;28;20097;-49
2023/08/16 11:29:28;;;;;;;4.63;4.18;;;37.40;72.10;;;;;;5012515;28;20026;-48
2023/08/16 11:31:57;;;;;;;6.70;4.22;;;37.00;73.30;;;;;;5012269;28;20512;-47
2023/08/16 11:34:23;;;;;;;;;;;37.00;73.00;;;;;;5004477;28;20128;-47
2023/08/16 11:36:48;;;;;;;5.93;4.60;;;36.50;75.90;;;;;;5011978;28;19992;-45
2023/08/16 11:39:14;;;;;;;6.15;4.38;;;36.00;75.40;;;;;;5012372;28;20026;-47
2023/08/16 11:41:41;;;;;;;5.45;4.75;;;36.30;75.20;;;;;;5012396;28;20033;-46
2023/08/16 11:44:06;;;;;;;6.50;4.82;;;36.00;78.00;;;;;;5011903;28;20017;-46
2023/08/16 11:46:47;;;;;;;5.13;4.60;;;36.60;76.30;;;;;;4994308;28;20551;-46
2023/08/16 11:49:12;;;;;;;5.10;4.10;;;36.60;73.80;;;;;;5011893;28;20014;-48
2023/08/16 11:51:39;;;;;;;4.65;4.07;;;36.60;72.60;;;;;;5012027;28;20028;-48
2023/08/16 11:54:07;;;;;;;7.22;4.38;;;36.80;72.50;;;;;;5011565;28;20018;-48
2023/08/16 11:56:32;;;;;;;9.52;5.00;;;36.90;72.50;;;;;;5011802;28;20068;-47
2023/08/16 11:58:59;;;;;;;6.45;4.30;;;36.80;74.90;;;;;;5011885;28;20077;-48
2023/08/16 12:01:26;;;;;;;5.20;4.38;;;36.90;73.60;;;;;;5011883;28;20018;-49
2023/08/16 12:03:51;;;;;;;5.93;4.22;;;37.20;72.50;;;;;;5011430;28;20488;-46
2023/08/16 12:06:17;;;;;;;7.88;4.45;;;37.50;71.30;;;;;;5011429;28;20084;-48
2023/08/16 12:08:48;;;;;;;6.40;3.90;;;37.50;71.10;;;;;;5011527;28;20049;-47
2023/08/16 12:11:13;;;;;;;7.03;4.00;;;37.20;72.20;;;;;;5011633;28;20010;-46
2023/08/16 12:13:39;;;;;;;7.00;4.15;;;36.90;71.60;;;;;;5012015;28;20373;-47
2023/08/16 12:16:05;;;;;;;10.18;4.20;;;36.60;71.80;;;;;;5011579;28;20022;-47
2023/08/16 12:18:31;;;;;;;7.20;4.40;;;36.00;72.70;;;;;;5011610;28;20392;-47
2023/08/16 12:20:58;;;;;;;5.82;4.18;;;35.70;72.10;;;;;;5011511;28;20018;-48
2023/08/16 12:23:24;;;;;;;6.13;4.68;;;35.20;75.80;;;;;;4993652;28;20502;-47
2023/08/16 12:25:49;;;;;;;6.85;5.15;;;34.80;74.80;;;;;;5010998;28;20037;-48
2023/08/16 12:28:15;;;;;;;5.40;4.57;;;34.40;75.70;;;;;;5011298;28;20030;-46
2023/08/16 12:30:40;;;;;;;4.85;4.40;;;34.40;77.90;;;;;;5011844;28;20079;-46
2023/08/16 12:33:06;;;;;;;6.85;4.90;;;34.10;76.10;;;;;;4993272;28;20034;-47
2023/08/16 12:35:33;;;;;;;10.13;4.70;;;33.90;77.30;;;;;;5010676;28;20045;-47